createdAt,value
2022-12-31T00:00:32.167Z,5.60
2022-12-31T00:02:59.625Z,7.85
2022-12-31T00:05:27.121Z,12.77
2022-12-31T00:07:54.473Z,10.77
2022-12-31T00:10:21.823Z,10.68
2022-12-31T00:12:49.381Z,12.32
2022-12-31T00:15:16.845Z,9.93
2022-12-31T00:17:44.202Z,10.05
2022-12-31T00:20:11.805Z,9.83
2022-12-31T00:22:39.209Z,7.45
2022-12-31T00:25:06.962Z,7.38
2022-12-31T00:27:34.405Z,7.93
2022-12-31T00:30:04.744Z,9.30
2022-12-31T00:32:32.355Z,6.57
2022-12-31T00:34:59.800Z,6.60
2022-12-31T00:37:27.213Z,7.70
2022-12-31T00:39:54.591Z,5.97
2022-12-31T00:42:22.136Z,6.60
2022-12-31T00:44:49.497Z,6.77
2022-12-31T00:47:16.919Z,7.35
2022-12-31T00:49:44.265Z,7.35
2022-12-31T00:52:14.018Z,8.30
2022-12-31T00:54:41.389Z,7.85
2022-12-31T00:57:08.713Z,8.40
2022-12-31T00:59:36.068Z,7.03
2022-12-31T01:02:03.727Z,9.20
2022-12-31T01:04:31.162Z,6.93
2022-12-31T01:06:58.545Z,8.18
2022-12-31T01:09:25.909Z,10.07
2022-12-31T01:11:53.291Z,10.98
2022-12-31T01:14:20.909Z,8.82
2022-12-31T01:16:49.387Z,10.48
2022-12-31T01:19:27.306Z,9.63
2022-12-31T01:21:55.005Z,9.73
2022-12-31T01:24:22.643Z,10.93
2022-12-31T01:26:51.290Z,10.95
2022-12-31T01:29:18.839Z,9.85
2022-12-31T01:31:46.344Z,9.45
2022-12-31T01:34:13.739Z,11.60
2022-12-31T01:36:41.238Z,12.52
2022-12-31T01:39:09.394Z,8.88
2022-12-31T01:41:38.363Z,8.98
2022-12-31T01:44:11.838Z,8.02
2022-12-31T01:46:50.578Z,9.67
2022-12-31T01:49:20.564Z,7.63
2022-12-31T01:51:49.891Z,11.02
2022-12-31T01:54:18.450Z,7.22
2022-12-31T01:56:46.667Z,7.45
2022-12-31T01:59:15.334Z,8.00
2022-12-31T02:01:42.845Z,9.48
2022-12-31T02:04:12.511Z,11.05
2022-12-31T02:06:42.432Z,8.43
2022-12-31T02:09:10.068Z,7.90
2022-12-31T02:11:38.233Z,7.77
2022-12-31T02:14:09.249Z,5.20
2022-12-31T02:16:50.576Z,7.28
2022-12-31T02:19:21.288Z,4.95
2022-12-31T02:21:53.704Z,6.68
2022-12-31T02:24:27.501Z,5.33
2022-12-31T02:26:57.279Z,7.32
2022-12-31T02:29:35.920Z,5.05
2022-12-31T02:32:14.510Z,5.25
2022-12-31T02:34:52.706Z,5.43
2022-12-31T02:37:21.184Z,6.33
2022-12-31T02:39:48.771Z,6.22
2022-12-31T02:42:16.173Z,4.63
2022-12-31T02:44:43.808Z,4.20
2022-12-31T02:47:11.199Z,4.15
2022-12-31T02:49:50.820Z,3.40
2022-12-31T02:52:39.473Z,7.13
2022-12-31T02:55:28.219Z,6.20
2022-12-31T02:57:58.746Z,3.53
2022-12-31T03:00:44.732Z,5.70
2022-12-31T03:03:12.792Z,5.37
2022-12-31T03:05:41.968Z,8.60
2022-12-31T03:08:10.031Z,6.32
2022-12-31T03:10:37.695Z,5.65
2022-12-31T03:13:05.144Z,5.40
2022-12-31T03:15:33.809Z,5.50
2022-12-31T03:18:09.175Z,4.88
2022-12-31T03:21:09.045Z,5.32
2022-12-31T03:23:39.203Z,7.03
2022-12-31T03:26:10.836Z,8.68
2022-12-31T03:28:39.127Z,5.77
2022-12-31T03:31:06.842Z,4.65
2022-12-31T03:33:35.697Z,5.05
2022-12-31T03:36:07.346Z,4.45
2022-12-31T03:38:34.667Z,4.35
2022-12-31T03:41:02.055Z,6.13
2022-12-31T03:43:29.430Z,6.03
2022-12-31T03:45:59.938Z,3.75
2022-12-31T03:48:27.406Z,6.40
2022-12-31T03:50:54.768Z,6.32
2022-12-31T03:53:22.155Z,9.13
2022-12-31T03:55:53.309Z,6.05
2022-12-31T03:58:20.787Z,6.38
2022-12-31T04:00:48.252Z,6.90
2022-12-31T04:03:15.805Z,8.00
2022-12-31T04:05:43.270Z,6.50
2022-12-31T04:08:10.793Z,8.95
2022-12-31T04:10:38.224Z,6.15
2022-12-31T04:13:05.569Z,5.82
2022-12-31T04:15:33.129Z,5.18
2022-12-31T04:18:00.581Z,7.47
2022-12-31T04:20:28.074Z,5.80
2022-12-31T04:22:55.420Z,8.90
2022-12-31T04:25:22.836Z,7.15
2022-12-31T04:27:50.246Z,7.53
2022-12-31T04:30:17.775Z,12.20
2022-12-31T04:32:45.248Z,11.23
2022-12-31T04:35:12.740Z,12.77
2022-12-31T04:37:40.338Z,16.52
2022-12-31T04:40:08.447Z,17.92
2022-12-31T04:42:36.508Z,14.27
2022-12-31T04:45:04.175Z,12.98
2022-12-31T04:47:31.533Z,16.25
2022-12-31T04:49:58.890Z,12.38
2022-12-31T04:52:26.278Z,15.88
2022-12-31T04:54:53.732Z,13.23
2022-12-31T04:57:21.082Z,11.93
2022-12-31T04:59:48.479Z,12.43
2022-12-31T05:02:15.999Z,10.93
2022-12-31T05:04:43.523Z,12.52
2022-12-31T05:07:10.924Z,9.23
2022-12-31T05:09:39.464Z,8.63
2022-12-31T05:12:06.980Z,7.82
2022-12-31T05:14:34.387Z,20.67
2022-12-31T05:17:01.857Z,7.30
2022-12-31T05:19:29.253Z,25.50
2022-12-31T05:22:15.105Z,5.70
2022-12-31T05:24:42.485Z,0.35
2022-12-31T05:27:09.895Z,0.10
2022-12-31T05:29:37.316Z,0.20
2022-12-31T05:32:04.634Z,0.50
2022-12-31T05:34:31.993Z,0.20
2022-12-31T05:36:59.314Z,0.20
2022-12-31T05:39:26.753Z,0.20
2022-12-31T05:41:54.100Z,0.30
2022-12-31T05:44:21.426Z,0.20
2022-12-31T05:46:48.796Z,0.20
2022-12-31T05:49:16.171Z,0.20
2022-12-31T05:51:43.480Z,0.43
2022-12-31T05:54:10.905Z,0.20
2022-12-31T05:56:40.991Z,0.30
2022-12-31T05:59:08.305Z,0.20
2022-12-31T06:01:35.727Z,0.30
2022-12-31T06:04:03.175Z,0.20
2022-12-31T06:06:30.558Z,0.20
2022-12-31T06:08:58.021Z,0.20
2022-12-31T06:11:25.435Z,0.20
2022-12-31T06:13:52.831Z,0.30
2022-12-31T06:16:20.164Z,0.43
2022-12-31T06:18:51.051Z,0.20
2022-12-31T06:21:19.062Z,0.27
2022-12-31T06:23:46.573Z,0.20
2022-12-31T06:26:13.906Z,0.20
2022-12-31T06:28:43.989Z,0.20
2022-12-31T06:31:13.076Z,0.30
2022-12-31T06:33:40.483Z,0.20
2022-12-31T06:36:09.263Z,0.20
2022-12-31T06:38:38.467Z,0.30
2022-12-31T06:41:10.466Z,0.22
2022-12-31T06:43:38.301Z,0.20
2022-12-31T06:46:06.806Z,0.20
2022-12-31T06:48:34.331Z,0.20
2022-12-31T06:51:15.050Z,0.30
2022-12-31T06:53:44.419Z,0.20
2022-12-31T06:56:15.484Z,0.20
2022-12-31T06:58:42.993Z,0.20
2022-12-31T07:01:29.173Z,0.20
2022-12-31T07:04:15.510Z,0.30
2022-12-31T07:06:52.668Z,0.20
2022-12-31T07:09:26.071Z,2.67
2022-12-31T07:12:02.595Z,0.23
2022-12-31T07:14:48.616Z,0.20
2022-12-31T07:17:15.901Z,0.30
2022-12-31T07:19:57.151Z,0.20
2022-12-31T07:22:25.131Z,0.30
2022-12-31T07:24:52.717Z,0.27
2022-12-31T07:27:29.409Z,0.20
2022-12-31T07:30:16.887Z,0.30
2022-12-31T07:32:56.910Z,0.20
2022-12-31T07:35:34.597Z,0.20
2022-12-31T07:38:21.418Z,0.20
2022-12-31T07:40:58.642Z,0.20
2022-12-31T07:43:27.196Z,0.68
2022-12-31T07:46:04.856Z,0.50
2022-12-31T07:48:32.408Z,0.25
2022-12-31T07:51:00.093Z,0.23
2022-12-31T07:53:27.814Z,0.20
2022-12-31T07:56:05.696Z,0.20
2022-12-31T07:58:51.707Z,0.20
2022-12-31T08:01:27.533Z,0.40
2022-12-31T08:04:00.974Z,0.30
2022-12-31T08:06:47.276Z,0.40
2022-12-31T08:09:39.342Z,0.20
2022-12-31T08:12:08.725Z,0.30
2022-12-31T08:14:40.853Z,0.25
2022-12-31T08:17:10.902Z,0.27
2022-12-31T08:19:38.439Z,0.40
2022-12-31T08:22:15.083Z,0.20
2022-12-31T08:24:48.668Z,0.35
2022-12-31T08:27:22.426Z,0.40
2022-12-31T08:29:59.701Z,0.53
2022-12-31T08:32:42.884Z,0.28
2022-12-31T08:35:24.382Z,0.30
2022-12-31T08:37:51.775Z,0.20
2022-12-31T08:40:22.511Z,0.30
2022-12-31T08:43:05.303Z,0.50
2022-12-31T08:45:36.441Z,0.38
2022-12-31T08:48:22.635Z,0.40
2022-12-31T08:50:50.541Z,0.40
2022-12-31T08:53:17.978Z,0.30
2022-12-31T08:55:46.661Z,0.27
2022-12-31T08:58:29.862Z,0.30
2022-12-31T09:00:59.243Z,0.30
2022-12-31T09:03:33.507Z,0.20
2022-12-31T09:06:11.195Z,0.20
2022-12-31T09:08:58.966Z,0.30
2022-12-31T09:11:32.292Z,0.43
2022-12-31T09:14:02.572Z,0.47
2022-12-31T09:16:36.174Z,0.20
2022-12-31T09:19:03.439Z,0.30
2022-12-31T09:21:32.429Z,0.20
2022-12-31T09:24:03.144Z,0.20
2022-12-31T09:26:53.742Z,0.30
2022-12-31T09:29:26.496Z,0.32
2022-12-31T09:31:57.287Z,0.40
2022-12-31T09:34:30.856Z,0.23
2022-12-31T09:37:03.733Z,0.40
2022-12-31T09:39:39.895Z,0.20
2022-12-31T09:42:10.161Z,0.20
2022-12-31T09:44:37.435Z,0.30
2022-12-31T09:47:23.435Z,0.20
2022-12-31T09:50:11.224Z,0.50
2022-12-31T09:52:57.379Z,0.25
2022-12-31T09:55:31.103Z,0.30
2022-12-31T09:58:13.652Z,0.32
2022-12-31T10:00:57.685Z,0.20
2022-12-31T10:03:45.291Z,0.30
2022-12-31T10:06:15.532Z,0.30
2022-12-31T10:09:02.279Z,0.20
2022-12-31T10:11:32.493Z,0.30
2022-12-31T10:14:23.056Z,0.30
2022-12-31T10:17:00.687Z,0.30
2022-12-31T10:19:36.118Z,0.40
2022-12-31T10:22:22.324Z,0.50
2022-12-31T10:25:08.738Z,0.30
2022-12-31T10:27:42.431Z,0.20
2022-12-31T10:30:14.204Z,0.40
2022-12-31T10:32:53.791Z,0.50
2022-12-31T10:35:42.735Z,0.30
2022-12-31T10:38:22.372Z,0.40
2022-12-31T10:40:49.673Z,0.20
2022-12-31T10:43:35.982Z,0.50
2022-12-31T10:46:09.645Z,0.30
2022-12-31T10:49:04.449Z,0.73
2022-12-31T10:51:47.160Z,0.32
2022-12-31T10:54:33.225Z,0.40
2022-12-31T10:57:19.497Z,0.25
2022-12-31T11:00:04.084Z,0.60
2022-12-31T11:02:50.363Z,0.40
2022-12-31T11:05:23.741Z,0.60
2022-12-31T11:07:54.869Z,0.40
2022-12-31T11:10:46.078Z,0.38
2022-12-31T11:13:24.744Z,0.40
2022-12-31T11:16:07.859Z,1.77
2022-12-31T11:18:41.476Z,0.50
2022-12-31T11:21:14.932Z,0.30
2022-12-31T11:23:49.344Z,0.30
2022-12-31T11:26:19.626Z,0.30
2022-12-31T11:29:07.009Z,0.65
2022-12-31T11:31:52.749Z,0.63
2022-12-31T11:34:26.132Z,0.30
2022-12-31T11:37:09.168Z,0.30
2022-12-31T11:39:45.074Z,0.38
2022-12-31T11:42:25.672Z,0.30
2022-12-31T11:44:56.128Z,0.45
2022-12-31T11:48:20.183Z,0.30
2022-12-31T11:50:32.838Z,0.40
2022-12-31T11:53:15.309Z,0.40
2022-12-31T11:55:51.562Z,0.30
2022-12-31T11:58:20.706Z,0.40
2022-12-31T12:00:56.780Z,0.40
2022-12-31T12:03:24.674Z,0.40
2022-12-31T12:05:52.385Z,0.40
2022-12-31T12:08:19.885Z,1.33
2022-12-31T12:10:48.842Z,0.40
2022-12-31T12:13:26.611Z,0.50
2022-12-31T12:15:56.253Z,0.30
2022-12-31T12:18:44.673Z,0.30
2022-12-31T12:21:13.690Z,0.30
2022-12-31T12:23:42.473Z,0.40
2022-12-31T12:26:26.737Z,0.30
2022-12-31T12:28:53.934Z,0.30
2022-12-31T12:31:23.534Z,0.40
2022-12-31T12:33:52.165Z,0.40
2022-12-31T12:36:23.029Z,0.40
2022-12-31T12:39:01.001Z,0.30
2022-12-31T12:41:28.166Z,0.38
2022-12-31T12:44:08.993Z,0.60
2022-12-31T12:46:43.612Z,0.30
2022-12-31T12:49:21.657Z,0.50
2022-12-31T12:52:07.850Z,0.40
2022-12-31T12:54:35.909Z,0.30
2022-12-31T12:57:11.684Z,0.47
2022-12-31T12:59:57.291Z,0.30
2022-12-31T13:02:41.141Z,0.40
2022-12-31T13:05:28.513Z,0.30
2022-12-31T13:08:02.034Z,0.32
2022-12-31T13:10:52.176Z,0.60
2022-12-31T13:13:25.396Z,0.85
2022-12-31T13:16:02.139Z,0.50
2022-12-31T13:18:33.724Z,0.33
2022-12-31T13:21:23.173Z,0.30
2022-12-31T13:23:53.191Z,0.40
2022-12-31T13:26:26.325Z,0.30
2022-12-31T13:28:53.790Z,0.50
2022-12-31T13:31:24.382Z,0.20
2022-12-31T13:33:54.657Z,0.30
2022-12-31T13:36:23.350Z,0.85
2022-12-31T13:38:54.382Z,0.40
2022-12-31T13:41:37.162Z,0.60
2022-12-31T13:44:16.501Z,0.27
2022-12-31T13:46:49.710Z,0.55
2022-12-31T13:49:22.525Z,0.50
2022-12-31T13:51:57.929Z,0.45
2022-12-31T13:54:34.145Z,0.75
2022-12-31T13:57:05.161Z,0.30
2022-12-31T13:59:35.236Z,0.43
2022-12-31T14:02:05.579Z,0.75
2022-12-31T14:04:38.927Z,0.40
2022-12-31T14:07:18.438Z,0.63
2022-12-31T14:09:46.676Z,1.50
2022-12-31T14:12:32.796Z,0.30
2022-12-31T14:15:12.793Z,0.30
2022-12-31T14:17:52.339Z,0.30
2022-12-31T14:20:23.953Z,0.63
2022-12-31T14:22:57.556Z,1.33
2022-12-31T14:25:29.828Z,0.25
2022-12-31T14:27:59.159Z,0.30
2022-12-31T14:30:27.895Z,0.40
2022-12-31T14:33:13.918Z,0.40
2022-12-31T14:35:47.660Z,0.37
2022-12-31T14:38:28.438Z,0.30
2022-12-31T14:41:04.978Z,0.90
2022-12-31T14:43:41.156Z,2.75
2022-12-31T14:46:27.252Z,1.25
2022-12-31T14:49:14.426Z,3.50
2022-12-31T14:51:41.697Z,0.30
2022-12-31T14:54:29.072Z,0.50
2022-12-31T14:56:56.434Z,0.50
2022-12-31T14:59:34.488Z,0.40
2022-12-31T15:02:25.991Z,0.70
2022-12-31T15:05:03.748Z,0.40
2022-12-31T15:07:40.206Z,0.40
2022-12-31T15:10:14.002Z,0.40
2022-12-31T15:12:41.295Z,0.35
2022-12-31T15:15:41.131Z,0.40
2022-12-31T15:18:21.899Z,0.30
2022-12-31T15:20:53.955Z,0.40
2022-12-31T15:23:23.230Z,0.57
2022-12-31T15:25:53.697Z,11.70
2022-12-31T15:28:31.341Z,0.30
2022-12-31T15:31:18.983Z,0.60
2022-12-31T15:34:03.524Z,0.43
2022-12-31T15:36:32.009Z,0.88
2022-12-31T15:39:08.205Z,1.83
2022-12-31T15:42:10.440Z,0.40
2022-12-31T15:44:52.641Z,0.35
2022-12-31T15:47:22.805Z,0.50
2022-12-31T15:49:51.097Z,0.20
2022-12-31T15:52:44.372Z,0.38
2022-12-31T15:55:20.787Z,0.40
2022-12-31T15:57:48.224Z,0.75
2022-12-31T16:00:17.302Z,0.60
2022-12-31T16:02:45.208Z,0.40
2022-12-31T16:05:23.299Z,1.02
2022-12-31T16:07:53.287Z,0.30
2022-12-31T16:10:24.372Z,0.50
2022-12-31T16:12:51.926Z,0.50
2022-12-31T16:15:28.000Z,0.30
2022-12-31T16:18:02.802Z,0.40
2022-12-31T16:20:31.262Z,0.23
2022-12-31T16:23:00.153Z,0.40
2022-12-31T16:25:31.018Z,0.40
2022-12-31T16:27:58.813Z,0.20
2022-12-31T16:30:27.963Z,0.30
2022-12-31T16:32:56.725Z,0.50
2022-12-31T16:35:25.870Z,0.40
2022-12-31T16:38:03.647Z,0.43
2022-12-31T16:40:31.154Z,0.50
2022-12-31T16:42:58.475Z,1.10
2022-12-31T16:45:25.806Z,0.73
2022-12-31T16:47:54.223Z,0.30
2022-12-31T16:50:22.502Z,0.85
2022-12-31T16:52:51.081Z,1.52
2022-12-31T16:55:20.041Z,0.60
2022-12-31T16:57:48.750Z,0.63
2022-12-31T17:00:17.352Z,0.65
2022-12-31T17:02:47.284Z,0.65
2022-12-31T17:05:24.956Z,0.77
2022-12-31T17:07:52.419Z,0.68
2022-12-31T17:10:24.955Z,0.30
2022-12-31T17:15:44.511Z,0.50
2022-12-31T17:18:22.580Z,0.50
2022-12-31T17:20:51.196Z,0.50
2022-12-31T17:23:26.213Z,0.30
2022-12-31T17:26:00.780Z,0.50
2022-12-31T17:28:29.598Z,2.08
2022-12-31T17:31:00.381Z,0.60
2022-12-31T17:33:28.622Z,1.20
2022-12-31T17:36:16.228Z,0.77
2022-12-31T17:38:43.765Z,1.33
2022-12-31T17:41:23.226Z,11.68
2022-12-31T17:43:57.448Z,23.40
2022-12-31T17:46:25.761Z,18.80
2022-12-31T17:48:56.855Z,11.03
2022-12-31T17:51:24.716Z,12.02
2022-12-31T17:53:52.033Z,15.38
2022-12-31T17:56:20.305Z,8.40
2022-12-31T17:58:54.399Z,10.80
2022-12-31T18:01:23.178Z,11.57
2022-12-31T18:03:50.679Z,9.97
2022-12-31T18:06:19.512Z,8.90
2022-12-31T18:08:47.091Z,13.25
2022-12-31T18:11:19.176Z,9.00
2022-12-31T18:13:46.635Z,9.85
2022-12-31T18:16:14.110Z,14.60
2022-12-31T18:18:42.278Z,10.90
2022-12-31T18:21:14.059Z,10.57
2022-12-31T18:23:43.089Z,11.38
2022-12-31T18:26:14.575Z,7.88
2022-12-31T18:28:41.739Z,12.97
2022-12-31T18:31:14.153Z,14.60
2022-12-31T18:33:41.442Z,13.43
2022-12-31T18:36:12.729Z,15.57
2022-12-31T18:38:40.194Z,11.73
2022-12-31T18:41:07.932Z,14.40
2022-12-31T18:43:35.053Z,9.32
2022-12-31T18:46:02.298Z,9.95
2022-12-31T18:48:29.464Z,11.82
2022-12-31T18:50:56.867Z,10.60
2022-12-31T18:53:24.447Z,14.73
2022-12-31T18:55:55.973Z,11.75
2022-12-31T18:58:23.653Z,12.90
2022-12-31T19:00:51.648Z,8.25
2022-12-31T19:03:21.441Z,10.32
2022-12-31T19:05:50.617Z,10.27
2022-12-31T19:08:18.474Z,7.03
2022-12-31T19:10:45.743Z,10.35
2022-12-31T19:13:13.870Z,8.63
2022-12-31T19:15:44.190Z,13.55
2022-12-31T19:18:11.459Z,13.47
2022-12-31T19:20:39.327Z,10.00
2022-12-31T19:23:06.493Z,10.73
2022-12-31T19:25:35.085Z,12.50
2022-12-31T19:28:03.082Z,11.20
2022-12-31T19:30:34.380Z,10.47
2022-12-31T19:33:01.565Z,10.38
2022-12-31T19:35:28.946Z,10.45
2022-12-31T19:37:56.388Z,12.77
2022-12-31T19:40:28.803Z,11.05
2022-12-31T19:42:56.201Z,12.27
2022-12-31T19:45:24.560Z,11.52
2022-12-31T19:47:52.272Z,14.18
2022-12-31T19:50:21.471Z,18.10
2022-12-31T19:52:49.519Z,10.98
2022-12-31T19:55:19.526Z,15.23
2022-12-31T19:57:47.675Z,14.95
2022-12-31T20:00:16.520Z,17.42
2022-12-31T20:02:44.900Z,18.75
2022-12-31T20:05:12.989Z,10.00
2022-12-31T20:07:40.239Z,19.27
2022-12-31T20:10:08.271Z,18.33
2022-12-31T20:12:39.142Z,10.57
2022-12-31T20:15:09.784Z,15.23
2022-12-31T20:17:37.180Z,8.63
2022-12-31T20:20:04.929Z,13.73
2022-12-31T20:22:32.280Z,17.95
2022-12-31T20:24:59.423Z,12.90
2022-12-31T20:27:26.634Z,9.38
2022-12-31T20:29:53.816Z,11.43
2022-12-31T20:32:21.019Z,13.20
2022-12-31T20:34:48.167Z,17.92
2022-12-31T20:37:15.370Z,8.25
2022-12-31T20:39:42.832Z,10.00
2022-12-31T20:42:09.965Z,10.10
2022-12-31T20:44:37.269Z,7.63
2022-12-31T20:47:04.392Z,10.32
2022-12-31T20:50:09.189Z,14.88
2022-12-31T20:52:18.777Z,14.00
2022-12-31T20:54:45.927Z,9.77
2022-12-31T20:57:13.061Z,18.63
2022-12-31T20:59:40.279Z,11.88
2022-12-31T21:02:29.613Z,36.58
2022-12-31T21:04:54.668Z,17.10
2022-12-31T21:07:21.971Z,11.93
2022-12-31T21:09:49.176Z,8.97
2022-12-31T21:12:35.158Z,9.80
2022-12-31T21:15:02.657Z,13.23
2022-12-31T21:17:29.831Z,6.18
2022-12-31T21:19:56.953Z,9.93
2022-12-31T21:22:24.697Z,9.40
2022-12-31T21:24:51.955Z,9.57
2022-12-31T21:27:19.212Z,14.63
2022-12-31T21:30:17.196Z,14.18
2022-12-31T21:32:33.463Z,12.70
2022-12-31T21:35:40.338Z,12.00
2022-12-31T21:37:59.238Z,13.85
2022-12-31T21:40:28.154Z,15.32
2022-12-31T21:42:55.515Z,14.82
2022-12-31T21:45:22.780Z,18.33
2022-12-31T21:48:08.452Z,16.93
2022-12-31T21:50:35.928Z,15.15
2022-12-31T21:53:03.138Z,9.38
2022-12-31T21:55:49.008Z,12.65
2022-12-31T21:58:32.004Z,14.45
2022-12-31T22:01:18.725Z,15.50
2022-12-31T22:03:46.387Z,16.38
2022-12-31T22:06:21.656Z,17.77
2022-12-31T22:08:50.521Z,15.27
2022-12-31T22:11:18.711Z,12.68
2022-12-31T22:13:46.027Z,13.43
2022-12-31T22:16:13.988Z,12.07
2022-12-31T22:18:42.835Z,9.45
2022-12-31T22:21:19.190Z,11.05
2022-12-31T22:23:48.866Z,14.68
2022-12-31T22:26:16.733Z,12.90
2022-12-31T22:28:44.732Z,7.78
2022-12-31T22:31:19.845Z,11.05
2022-12-31T22:33:47.464Z,12.75
2022-12-31T22:36:16.692Z,9.38
2022-12-31T22:38:44.006Z,7.90
2022-12-31T22:41:15.621Z,13.13
2022-12-31T22:43:43.893Z,9.30
2022-12-31T22:46:15.712Z,10.70
2022-12-31T22:48:43.221Z,10.82
2022-12-31T22:51:11.226Z,9.33
2022-12-31T22:53:41.064Z,13.73
2022-12-31T22:56:08.515Z,8.88
2022-12-31T22:58:36.106Z,10.85
2022-12-31T23:01:07.356Z,13.00
2022-12-31T23:03:34.689Z,11.07
2022-12-31T23:06:01.985Z,22.05
2022-12-31T23:08:29.251Z,71.65
2022-12-31T23:11:05.360Z,31.48
2022-12-31T23:13:55.832Z,41.45
2022-12-31T23:16:42.121Z,59.70
2022-12-31T23:19:28.601Z,58.75
2022-12-31T23:22:14.847Z,37.10
2022-12-31T23:24:42.025Z,47.88
2022-12-31T23:27:09.841Z,49.50
2022-12-31T23:29:46.558Z,38.70
2022-12-31T23:32:18.355Z,61.05
2022-12-31T23:34:45.978Z,49.67
2022-12-31T23:37:13.791Z,38.72
2022-12-31T23:39:41.340Z,66.38
2022-12-31T23:42:08.605Z,29.67
2022-12-31T23:44:35.761Z,32.67
2022-12-31T23:47:02.953Z,34.63
2022-12-31T23:49:30.174Z,41.72
2022-12-31T23:51:57.278Z,32.20
2022-12-31T23:54:24.475Z,49.77
2022-12-31T23:56:51.635Z,41.00
2022-12-31T23:59:18.824Z,51.25
